Aérodrome :
LOGIN :

S'inscrire | Disclaimer

   EN    FR    IT 

 










Légende :    VFR   VFR Marginal   IFR   IFR Intensif   IFR Très Intensif
Visi : 
Plafond : 
>= 8 km
>= 3000ft
5 à 8 km
1000 à 3000 ft
1500m à 5 km
500 à 1000 ft
800 à 1500m
200 à 500 ft
< 800m
< 200 ft
Symboles :   Orages  Brouillard  Fortes neiges  Fortes précipitations  Vent > 20 kt
SIGMETs :   Divers  Orages  Givrage  Turbulence  Onde Orograph.  Cendres Volcan.







- Altitude de l'aérodrome : 309 ft
- Code IATA : FNI
- Voir les cartes d'approche


LFTW - Nîmes Garons

DERNIER METAR :
  • 211700Z AUTO 35011KT 300V020 CAVOK 29/13 Q1016 TEMPO 33015G25KT

METARs EXPIRÉS :
  • 211630Z AUTO 00000KT CAVOK 29/18 Q1015 TEMPO 33015G25KT
  • 211600Z AUTO 19004KT 140V250 CAVOK 29/18 Q1015 NOSIG
  • 211530Z AUTO 19006KT 150V250 CAVOK 29/18 Q1015 NOSIG
  • 211500Z AUTO 20005KT 140V250 CAVOK 29/18 Q1015 NOSIG

TAF TAF LFTW
Valide du 21 à 15h jusqu'au 22 à 15h UTC


211400Z 2115/2215 20006KT CAVOK
BECMG 2116/2118 30012KT
TEMPO 2118/2122 33015G25KT
BECMG 2123/2201 36012KT
Pas de NOTAMs connus pour ce terrain.
1 SIGMET publié pour la FIR Marseille (LFMM) :
 
Givrage fort
LFMM SIGMET 1 VALID 211700/211900 LFPW
LFMM MARSEILLE FIR/UIR SEV ICE OBS AT 1710Z WI N4630 E00700 - N4530 E00700 - N4345 E00245 - N4500 E00245 - N4630 E00700 FL180/240 MOV SE 15KT NC=



MET'MAP, la Météo Aéronautique d'un coup d'oeil ! - Copyright ORBIFLY Décembre 2007 - Disclaimer

ORBIFLY MET'MAP TEAM :

Programmation & Développement : Alexandra Zaïnal
Conception & Développement : Baudouin d'Aumeries
Co-Programmation & Développement : Marc-Olivier Méhu
Soutien technique & logistique : Manuel Goepfert

Contact : metmap@orbifly.com




SOURCES & CREDITS :

   NOAA